createdAt,value
2023-07-03T00:01:36.438Z,97125.25
2023-07-03T00:04:21.339Z,97117.63
2023-07-03T00:07:06.401Z,97118.31
2023-07-03T00:09:51.791Z,97118.94
2023-07-03T00:12:36.875Z,97117.34
2023-07-03T00:15:22.116Z,97119.25
2023-07-03T00:18:07.148Z,97115.72
2023-07-03T00:20:52.512Z,97111.81
2023-07-03T00:23:37.827Z,97125.25
2023-07-03T00:26:23.169Z,97123.63
2023-07-03T00:29:08.734Z,97128.06
2023-07-03T00:31:53.796Z,97127.81
2023-07-03T00:34:39.298Z,97116.25
2023-07-03T00:37:24.766Z,97117.72
2023-07-03T00:40:10.225Z,97120.13
2023-07-03T00:42:55.505Z,97108.63
2023-07-03T00:45:40.680Z,97109.22
2023-07-03T00:48:25.882Z,97109.28
2023-07-03T00:51:11.230Z,97105.31
2023-07-03T00:53:56.768Z,97106.22
2023-07-03T00:56:42.076Z,97100.28
2023-07-03T00:59:27.525Z,97104.66
2023-07-03T01:02:12.940Z,97106.38
2023-07-03T01:04:58.364Z,97107.81
2023-07-03T01:07:43.681Z,97108.63
2023-07-03T01:10:28.876Z,97111.56
2023-07-03T01:13:14.100Z,97111.44
2023-07-03T01:15:59.591Z,97110.88
2023-07-03T01:18:44.854Z,97120.41
2023-07-03T01:21:34.174Z,97117.53
2023-07-03T01:24:19.354Z,97120.84
2023-07-03T01:27:04.938Z,97113.59
2023-07-03T01:29:50.227Z,97120.25
2023-07-03T01:32:35.577Z,97114.78
2023-07-03T01:35:20.997Z,97118.97
2023-07-03T01:38:06.152Z,97118.09
2023-07-03T01:40:51.482Z,97115.78
2023-07-03T01:43:36.908Z,97117.72
2023-07-03T01:46:22.286Z,97115.91
2023-07-03T01:49:07.713Z,97116.78
2023-07-03T01:51:52.875Z,97120.06
2023-07-03T01:54:38.076Z,97114.31
2023-07-03T01:57:23.411Z,97108.59
2023-07-03T02:00:08.952Z,97124.41
2023-07-03T02:02:54.650Z,97122.75
2023-07-03T02:05:39.763Z,97116.53
2023-07-03T02:08:24.803Z,97113.66
2023-07-03T02:11:10.011Z,97118.16
2023-07-03T02:13:55.426Z,97109.81
2023-07-03T02:16:40.847Z,97104.78
2023-07-03T02:19:26.022Z,97100.66
2023-07-03T02:22:11.696Z,97109.66
2023-07-03T02:24:56.961Z,97110.25
2023-07-03T02:27:42.289Z,97109.97
2023-07-03T02:30:27.527Z,97111.81
2023-07-03T02:33:12.737Z,97120.31
2023-07-03T02:35:58.193Z,97111.13
2023-07-03T02:38:43.721Z,97108.78
2023-07-03T02:41:29.165Z,97117.13
2023-07-03T02:44:14.289Z,97115.59
2023-07-03T02:46:59.600Z,97114.56
2023-07-03T02:49:44.725Z,97116.47
2023-07-03T02:52:29.973Z,97121.44
2023-07-03T02:55:15.481Z,97123.91
2023-07-03T02:58:00.858Z,97116.59
2023-07-03T03:00:46.306Z,97125.78
2023-07-03T03:03:31.606Z,97117.13
2023-07-03T03:06:16.925Z,97129.91
2023-07-03T03:09:02.347Z,97122.94
2023-07-03T03:11:47.548Z,97123.09
2023-07-03T03:14:32.718Z,97127.25
2023-07-03T03:17:18.005Z,97126.72
2023-07-03T03:20:03.569Z,97126.63
2023-07-03T03:22:49.138Z,97124.59
2023-07-03T03:25:34.489Z,97131.47
2023-07-03T03:28:19.628Z,97127.38
2023-07-03T03:31:04.794Z,97125.59
2023-07-03T03:33:49.845Z,97120.66
2023-07-03T03:36:35.292Z,97121.97
2023-07-03T03:39:20.651Z,97125.78
2023-07-03T03:42:06.072Z,97120.13
2023-07-03T03:44:51.413Z,97128.75
2023-07-03T03:47:36.971Z,97129.50
2023-07-03T03:50:22.320Z,97126.72
2023-07-03T03:53:07.562Z,97120.66
2023-07-03T03:55:53.333Z,97122.59
2023-07-03T03:58:41.879Z,97124.44
2023-07-03T04:01:27.187Z,97128.50
2023-07-03T04:04:12.714Z,97126.63
2023-07-03T04:06:57.935Z,97136.19
2023-07-03T04:09:43.123Z,97139.44
2023-07-03T04:12:28.304Z,97138.34
2023-07-03T04:15:13.696Z,97140.28
2023-07-03T04:17:59.019Z,97138.34
2023-07-03T04:20:44.247Z,97134.31
2023-07-03T04:23:29.706Z,97132.78
2023-07-03T04:26:15.076Z,97146.28
2023-07-03T04:29:00.196Z,97135.72
2023-07-03T04:31:45.503Z,97145.03
2023-07-03T04:34:31.009Z,97136.63
2023-07-03T04:37:16.289Z,97138.78
2023-07-03T04:40:01.564Z,97139.19
2023-07-03T04:42:46.764Z,97134.56
2023-07-03T04:45:32.022Z,97142.72
2023-07-03T04:48:17.446Z,97145.94
2023-07-03T04:51:02.700Z,97143.28
2023-07-03T04:53:47.915Z,97141.25
2023-07-03T04:56:33.359Z,97137.81
2023-07-03T04:59:18.689Z,97141.91
2023-07-03T05:02:04.091Z,97141.97
2023-07-03T05:04:49.110Z,97134.91
2023-07-03T05:07:34.375Z,97142.09
2023-07-03T05:10:19.563Z,97140.47
2023-07-03T05:13:04.820Z,97151.19
2023-07-03T05:15:50.342Z,97140.75
2023-07-03T05:18:35.760Z,97150.97
2023-07-03T05:21:21.021Z,97159.81
2023-07-03T05:24:06.242Z,97158.22
2023-07-03T05:26:51.409Z,97156.84
2023-07-03T05:29:37.033Z,97153.09
2023-07-03T05:32:22.315Z,97156.88
2023-07-03T05:35:07.671Z,97155.53
2023-07-03T05:37:53.148Z,97153.03
2023-07-03T05:40:38.628Z,97155.25
2023-07-03T05:43:23.918Z,97160.94
2023-07-03T05:46:09.328Z,97160.25
2023-07-03T05:48:54.771Z,97159.69
2023-07-03T05:51:40.100Z,97167.34
2023-07-03T05:54:25.573Z,97161.28
2023-07-03T05:57:10.928Z,97161.75
2023-07-03T05:59:56.142Z,97176.09
2023-07-03T06:02:41.649Z,97160.94
2023-07-03T06:05:26.967Z,97173.03
2023-07-03T06:08:12.422Z,97170.88
2023-07-03T06:10:57.532Z,97172.56
2023-07-03T06:13:43.028Z,97168.03
2023-07-03T06:16:28.466Z,97180.03
2023-07-03T06:19:13.770Z,97185.25
2023-07-03T06:21:59.235Z,97180.34
2023-07-03T06:24:44.424Z,97179.69
2023-07-03T06:27:29.934Z,97182.22
2023-07-03T06:30:15.410Z,97182.56
2023-07-03T06:33:00.960Z,97177.22
2023-07-03T06:35:46.419Z,97182.88
2023-07-03T06:38:31.565Z,97178.09
2023-07-03T06:41:17.062Z,97179.16
2023-07-03T06:44:02.470Z,97187.47
2023-07-03T06:46:50.844Z,97180.47
2023-07-03T06:49:36.234Z,97176.81
2023-07-03T06:52:21.392Z,97179.88
2023-07-03T06:55:06.510Z,97171.28
2023-07-03T06:57:51.863Z,97175.84
2023-07-03T07:00:37.173Z,97168.41
2023-07-03T07:03:22.861Z,97171.97
2023-07-03T07:06:08.010Z,97170.28
2023-07-03T07:08:53.470Z,97171.22
2023-07-03T07:11:38.807Z,97174.00
2023-07-03T07:14:24.275Z,97173.88
2023-07-03T07:17:09.485Z,97174.22
2023-07-03T07:19:57.304Z,97171.06
2023-07-03T07:22:43.924Z,97169.69
2023-07-03T07:25:29.221Z,97172.22
2023-07-03T07:28:14.822Z,97171.03
2023-07-03T07:31:00.279Z,97172.53
2023-07-03T07:33:45.522Z,97168.91
2023-07-03T07:36:30.915Z,97174.34
2023-07-03T07:39:16.360Z,97172.91
2023-07-03T07:42:01.692Z,97170.00
2023-07-03T07:44:47.112Z,97167.28
2023-07-03T07:47:32.394Z,97169.69
2023-07-03T07:50:17.717Z,97168.41
2023-07-03T07:53:03.184Z,97167.56
2023-07-03T07:55:48.713Z,97164.22
2023-07-03T07:58:34.590Z,97168.97
2023-07-03T08:01:19.896Z,97165.50
2023-07-03T08:04:05.357Z,97169.56
2023-07-03T08:06:50.653Z,97165.81
2023-07-03T08:09:35.969Z,97168.31
2023-07-03T08:12:21.353Z,97170.53
2023-07-03T08:15:06.730Z,97174.88
2023-07-03T08:17:52.154Z,97171.38
2023-07-03T08:20:37.211Z,97176.78
2023-07-03T08:23:22.645Z,97180.78
2023-07-03T08:26:07.636Z,97176.56
2023-07-03T08:28:53.308Z,97182.19
2023-07-03T08:31:38.764Z,97175.94
2023-07-03T08:34:23.971Z,97181.50
2023-07-03T08:37:09.521Z,97174.53
2023-07-03T08:39:54.966Z,97181.28
2023-07-03T08:42:40.490Z,97177.38
2023-07-03T08:45:25.781Z,97186.88
2023-07-03T08:48:11.257Z,97183.06
2023-07-03T08:50:57.020Z,97180.28
2023-07-03T08:53:42.558Z,97186.09
2023-07-03T08:56:27.899Z,97182.66
2023-07-03T08:59:13.350Z,97183.25
2023-07-03T09:01:58.651Z,97184.31
2023-07-03T09:04:44.333Z,97194.47
2023-07-03T09:07:29.585Z,97192.50
2023-07-03T09:10:15.006Z,97185.22
2023-07-03T09:13:00.362Z,97189.03
2023-07-03T09:15:45.885Z,97188.75
2023-07-03T09:18:31.417Z,97190.53
2023-07-03T09:21:16.665Z,97202.50
2023-07-03T09:24:02.218Z,97196.44
2023-07-03T09:26:47.890Z,97190.38
2023-07-03T09:29:33.203Z,97199.88
2023-07-03T09:32:18.554Z,97196.53
2023-07-03T09:35:03.847Z,97199.22
2023-07-03T09:37:49.233Z,97200.78
2023-07-03T09:40:34.321Z,97195.88
2023-07-03T09:43:19.731Z,97195.28
2023-07-03T09:46:04.702Z,97199.91
2023-07-03T09:48:50.126Z,97198.84
2023-07-03T09:51:35.416Z,97203.72
2023-07-03T09:54:20.866Z,97199.53
2023-07-03T09:57:06.012Z,97190.44
2023-07-03T09:59:51.048Z,97188.41
2023-07-03T10:08:12.794Z,97190.94
2023-07-03T10:13:45.959Z,97182.53
2023-07-03T10:16:30.906Z,97191.81
2023-07-03T10:19:16.433Z,97190.78
2023-07-03T10:22:01.656Z,97192.72
2023-07-03T10:24:47.066Z,97189.28
2023-07-03T10:27:32.196Z,97188.56
2023-07-03T10:30:17.622Z,97187.34
2023-07-03T10:33:03.055Z,97181.09
2023-07-03T10:35:48.481Z,97180.78
2023-07-03T10:38:34.033Z,97186.78
2023-07-03T10:41:19.115Z,97185.97
2023-07-03T10:44:04.261Z,97188.84
2023-07-03T10:46:49.880Z,97183.16
2023-07-03T10:49:34.770Z,97181.66
2023-07-03T10:52:20.098Z,97178.25
2023-07-03T10:55:05.558Z,97180.63
2023-07-03T10:57:50.987Z,97186.53
2023-07-03T11:00:36.416Z,97190.78
2023-07-03T11:03:21.734Z,97179.41
2023-07-03T11:06:07.235Z,97186.84
2023-07-03T11:08:52.741Z,97181.94
2023-07-03T11:11:38.056Z,97183.94
2023-07-03T11:14:23.418Z,97172.00
2023-07-03T11:17:08.731Z,97168.19
2023-07-03T11:19:53.913Z,97170.63
2023-07-03T11:25:27.691Z,97178.97
2023-07-03T11:28:13.134Z,97169.66
2023-07-03T11:30:58.428Z,97162.81
2023-07-03T11:36:43.415Z,97173.03
2023-07-03T11:45:12.977Z,97171.53
2023-07-03T11:47:58.495Z,97171.00
2023-07-03T11:50:43.653Z,97158.59
2023-07-03T11:53:29.130Z,97168.84
2023-07-03T11:56:14.446Z,97161.94
2023-07-03T11:58:59.843Z,97163.41
2023-07-03T12:01:45.467Z,97161.03
2023-07-03T12:04:30.889Z,97158.50
2023-07-03T12:07:16.575Z,97154.91
2023-07-03T12:10:01.737Z,97154.38
2023-07-03T12:12:47.054Z,97153.06
2023-07-03T12:15:32.287Z,97151.50
2023-07-03T12:18:17.796Z,97165.09
2023-07-03T12:21:03.278Z,97154.06
2023-07-03T12:23:49.408Z,97150.97
2023-07-03T12:26:35.054Z,97151.44
2023-07-03T12:29:21.885Z,97153.69
2023-07-03T12:32:08.628Z,97149.88
2023-07-03T12:34:54.062Z,97140.69
2023-07-03T12:37:39.278Z,97140.44
2023-07-03T12:40:24.787Z,97145.06
2023-07-03T12:43:09.980Z,97140.06
2023-07-03T12:45:55.663Z,97140.06
2023-07-03T12:48:41.021Z,97139.44
2023-07-03T12:51:26.290Z,97138.59
2023-07-03T12:54:11.746Z,97139.31
2023-07-03T12:56:56.972Z,97142.44
2023-07-03T12:59:42.382Z,97139.69
2023-07-03T13:02:27.830Z,97140.09
2023-07-03T13:05:13.236Z,97139.84
2023-07-03T13:07:58.548Z,97138.88
2023-07-03T13:10:43.993Z,97149.38
2023-07-03T13:13:29.595Z,97148.38
2023-07-03T13:16:14.811Z,97152.03
2023-07-03T13:19:00.050Z,97142.56
2023-07-03T13:21:45.621Z,97148.22
2023-07-03T13:24:30.885Z,97148.69
2023-07-03T13:27:16.418Z,97144.84
2023-07-03T13:30:01.863Z,97149.72
2023-07-03T13:32:47.317Z,97139.91
2023-07-03T13:35:32.625Z,97153.09
2023-07-03T13:38:17.814Z,97150.94
2023-07-03T13:41:03.284Z,97147.31
2023-07-03T13:43:48.718Z,97150.44
2023-07-03T13:46:33.988Z,97157.75
2023-07-03T13:49:19.550Z,97154.69
2023-07-03T13:52:04.842Z,97148.69
2023-07-03T13:54:50.257Z,97149.69
2023-07-03T13:57:35.567Z,97151.44
2023-07-03T14:00:20.607Z,97143.31
2023-07-03T14:03:05.987Z,97137.19
2023-07-03T14:05:51.538Z,97143.66
2023-07-03T14:08:36.937Z,97142.44
2023-07-03T14:11:22.260Z,97146.19
2023-07-03T14:14:07.566Z,97140.50
2023-07-03T14:16:52.879Z,97141.19
2023-07-03T14:19:38.307Z,97139.69
2023-07-03T14:22:23.604Z,97142.44
2023-07-03T14:25:08.743Z,97137.03
2023-07-03T14:27:54.009Z,97138.75
2023-07-03T14:30:39.415Z,97137.34
2023-07-03T14:33:25.112Z,97138.25
2023-07-03T14:36:10.370Z,97140.91
2023-07-03T14:38:55.742Z,97149.25
2023-07-03T14:41:41.254Z,97145.84
2023-07-03T14:44:26.493Z,97147.19
2023-07-03T14:47:12.033Z,97141.63
2023-07-03T14:49:57.374Z,97147.03
2023-07-03T14:52:42.830Z,97154.56
2023-07-03T14:55:28.284Z,97151.81
2023-07-03T14:58:13.698Z,97154.44
2023-07-03T15:00:59.199Z,97154.78
2023-07-03T15:03:44.748Z,97158.75
2023-07-03T15:06:30.383Z,97161.19
2023-07-03T15:09:15.708Z,97166.22
2023-07-03T15:12:01.047Z,97152.22
2023-07-03T15:14:46.496Z,97151.53
2023-07-03T15:17:31.924Z,97151.59
2023-07-03T15:20:17.318Z,97143.25
2023-07-03T15:23:02.675Z,97139.22
2023-07-03T15:25:48.022Z,97139.16
2023-07-03T15:28:33.499Z,97145.72
2023-07-03T15:31:19.385Z,97144.94
2023-07-03T15:34:04.803Z,97138.09
2023-07-03T15:36:50.073Z,97141.63
2023-07-03T15:39:35.805Z,97135.63
2023-07-03T15:42:21.660Z,97127.50
2023-07-03T15:45:06.895Z,97128.19
2023-07-03T15:47:52.511Z,97125.69
2023-07-03T15:50:37.736Z,97133.78
2023-07-03T15:53:22.992Z,97134.91
2023-07-03T15:56:08.486Z,97115.91
2023-07-03T15:58:53.740Z,97127.31
2023-07-03T16:01:39.480Z,97120.69
2023-07-03T16:04:24.443Z,97117.53
2023-07-03T16:07:09.835Z,97124.13
2023-07-03T16:09:55.247Z,97121.78
2023-07-03T16:12:40.447Z,97110.44
2023-07-03T16:15:26.009Z,97118.03
2023-07-03T16:18:11.308Z,97121.91
2023-07-03T16:20:57.958Z,97117.19
2023-07-03T16:23:43.017Z,97110.38
2023-07-03T16:26:28.342Z,97105.97
2023-07-03T16:29:13.750Z,97111.50
2023-07-03T16:31:59.229Z,97116.81
2023-07-03T16:34:44.875Z,97116.94
2023-07-03T16:37:30.183Z,97117.56
2023-07-03T16:40:15.237Z,97112.91
2023-07-03T16:43:00.540Z,97104.81
2023-07-03T16:45:46.142Z,97106.22
2023-07-03T16:48:31.427Z,97102.84
2023-07-03T16:51:16.953Z,97110.09
2023-07-03T16:54:02.052Z,97103.22
2023-07-03T16:56:47.395Z,97102.78
2023-07-03T16:59:32.647Z,97110.69
2023-07-03T17:02:19.755Z,97106.44
2023-07-03T17:05:05.887Z,97109.69
2023-07-03T17:07:51.424Z,97110.63
2023-07-03T17:10:37.034Z,97106.81
2023-07-03T17:13:22.196Z,97106.91
2023-07-03T17:16:07.643Z,97106.41
2023-07-03T17:18:52.795Z,97105.34
2023-07-03T17:21:38.250Z,97102.44
2023-07-03T17:24:23.424Z,97096.47
2023-07-03T17:27:08.564Z,97095.97
2023-07-03T17:29:54.135Z,97091.31
2023-07-03T17:32:39.410Z,97093.09
2023-07-03T17:35:24.916Z,97096.38
2023-07-03T17:38:10.198Z,97086.88
2023-07-03T17:40:55.597Z,97091.16
2023-07-03T17:43:40.960Z,97098.44
2023-07-03T17:46:27.712Z,97096.47
2023-07-03T17:49:13.184Z,97098.06
2023-07-03T17:51:58.522Z,97102.44
2023-07-03T17:54:43.850Z,97090.28
2023-07-03T17:57:29.033Z,97090.59
2023-07-03T18:00:14.314Z,97095.13
2023-07-03T18:03:00.701Z,97094.88
2023-07-03T18:05:46.245Z,97078.09
2023-07-03T18:08:31.623Z,97092.16
2023-07-03T18:11:16.824Z,97091.94
2023-07-03T18:14:02.184Z,97090.22
2023-07-03T18:16:47.584Z,97096.50
2023-07-03T18:19:32.959Z,97095.19
2023-07-03T18:22:18.425Z,97098.91
2023-07-03T18:25:03.853Z,97098.91
2023-07-03T18:27:49.188Z,97100.25
2023-07-03T18:30:34.590Z,97103.63
2023-07-03T18:33:19.931Z,97106.06
2023-07-03T18:36:05.239Z,97102.75
2023-07-03T18:38:50.320Z,97103.88
2023-07-03T18:41:35.701Z,97113.53
2023-07-03T18:44:21.014Z,97110.84
2023-07-03T18:47:06.298Z,97106.00
2023-07-03T18:49:51.640Z,97108.31
2023-07-03T18:52:37.049Z,97116.44
2023-07-03T18:55:22.381Z,97112.97
2023-07-03T18:58:07.601Z,97118.63
2023-07-03T19:00:52.808Z,97129.56
2023-07-03T19:03:38.216Z,97128.16
2023-07-03T19:06:23.239Z,97126.06
2023-07-03T19:09:08.567Z,97127.09
2023-07-03T19:11:53.880Z,97128.44
2023-07-03T19:14:38.774Z,97136.25
2023-07-03T19:17:23.920Z,97141.59
2023-07-03T19:20:12.357Z,97138.63
2023-07-03T19:22:57.828Z,97148.63
2023-07-03T19:25:43.954Z,97141.03
2023-07-03T19:28:32.608Z,97151.91
2023-07-03T19:31:18.005Z,97157.94
2023-07-03T19:34:03.957Z,97160.53
2023-07-03T19:36:49.247Z,97158.75
2023-07-03T19:39:34.707Z,97156.25
2023-07-03T19:42:20.482Z,97156.25
2023-07-03T19:45:05.692Z,97159.00
2023-07-03T19:47:50.888Z,97166.41
2023-07-03T19:50:36.049Z,97169.34
2023-07-03T19:53:21.284Z,97167.88
2023-07-03T19:56:06.923Z,97174.88
2023-07-03T19:58:52.175Z,97174.59
2023-07-03T20:01:37.559Z,97178.47
2023-07-03T20:04:23.386Z,97179.31
2023-07-03T20:07:08.785Z,97188.59
2023-07-03T20:09:54.093Z,97192.84
2023-07-03T20:12:39.633Z,97195.03
2023-07-03T20:15:25.401Z,97200.25
2023-07-03T20:18:10.848Z,97196.81
2023-07-03T20:20:55.921Z,97197.88
2023-07-03T20:23:41.117Z,97200.41
2023-07-03T20:26:26.482Z,97195.50
2023-07-03T20:29:11.538Z,97203.06
2023-07-03T20:31:56.943Z,97198.59
2023-07-03T20:34:45.286Z,97204.56
2023-07-03T20:37:30.590Z,97206.13
2023-07-03T20:40:15.994Z,97201.50
2023-07-03T20:43:01.203Z,97214.09
2023-07-03T20:45:46.636Z,97212.03
2023-07-03T20:48:31.811Z,97211.81
2023-07-03T20:51:17.204Z,97207.97
2023-07-03T20:54:02.205Z,97215.16
2023-07-03T20:56:48.250Z,97215.78
2023-07-03T20:59:33.543Z,97207.31
2023-07-03T21:02:18.967Z,97213.31
2023-07-03T21:05:04.288Z,97212.19
2023-07-03T21:07:49.419Z,97224.00
2023-07-03T21:10:34.998Z,97230.41
2023-07-03T21:13:21.061Z,97223.16
2023-07-03T21:16:06.477Z,97221.06
2023-07-03T21:18:54.076Z,97217.72
2023-07-03T21:21:39.361Z,97230.16
2023-07-03T21:24:24.711Z,97225.56
2023-07-03T21:27:10.479Z,97223.56
2023-07-03T21:29:55.788Z,97226.94
2023-07-03T21:32:40.894Z,97224.31
2023-07-03T21:35:26.258Z,97221.22
2023-07-03T21:38:11.336Z,97230.44
2023-07-03T21:40:57.400Z,97230.59
2023-07-03T21:43:44.276Z,97230.50
2023-07-03T21:46:29.765Z,97230.28
2023-07-03T21:49:15.026Z,97237.41
2023-07-03T21:52:00.258Z,97237.09
2023-07-03T21:54:45.672Z,97245.13
2023-07-03T21:57:30.824Z,97239.47
2023-07-03T22:00:16.288Z,97239.84
2023-07-03T22:03:01.740Z,97244.91
2023-07-03T22:05:46.970Z,97243.97
2023-07-03T22:08:32.502Z,97241.44
2023-07-03T22:11:17.658Z,97239.44
2023-07-03T22:14:02.902Z,97234.06
2023-07-03T22:16:48.216Z,97232.66
2023-07-03T22:19:33.040Z,97231.59
2023-07-03T22:22:18.418Z,97228.78
2023-07-03T22:25:03.661Z,97228.78
2023-07-03T22:27:49.067Z,97225.97
2023-07-03T22:30:34.434Z,97226.53
2023-07-03T22:33:19.813Z,97222.25
2023-07-03T22:36:05.226Z,97221.44
2023-07-03T22:38:50.667Z,97213.50
2023-07-03T22:41:35.910Z,97215.31
2023-07-03T22:44:21.186Z,97207.69
2023-07-03T22:47:06.840Z,97209.69
2023-07-03T22:49:51.923Z,97206.56
2023-07-03T22:52:37.286Z,97205.09
2023-07-03T22:55:24.052Z,97206.41
2023-07-03T22:58:09.295Z,97202.38
2023-07-03T23:00:54.711Z,97205.25
2023-07-03T23:03:40.064Z,97211.81
2023-07-03T23:06:25.232Z,97212.91
2023-07-03T23:09:10.517Z,97207.91
2023-07-03T23:11:55.873Z,97211.31
2023-07-03T23:14:41.163Z,97210.47
2023-07-03T23:17:26.310Z,97215.44
2023-07-03T23:20:11.663Z,97213.97
2023-07-03T23:22:57.139Z,97214.03
2023-07-03T23:25:42.542Z,97214.00
2023-07-03T23:28:28.203Z,97220.84
2023-07-03T23:31:13.675Z,97214.03
2023-07-03T23:33:59.123Z,97215.06
2023-07-03T23:36:44.651Z,97224.00
2023-07-03T23:39:30.064Z,97222.31
2023-07-03T23:42:15.505Z,97214.53
2023-07-03T23:45:00.706Z,97226.81
2023-07-03T23:47:46.456Z,97220.84
2023-07-03T23:50:31.536Z,97225.47
2023-07-03T23:53:17.100Z,97225.47
2023-07-03T23:56:02.484Z,97225.41
2023-07-03T23:58:47.785Z,97219.59
